Time;durP1;ratioP1;P1;durP2;ratioP2;P2;SDS_P1;SDS_P2;PMS_P1;PMS_P2;Temp;Humidity;BMP_temperature;BMP_pressure;BME280_temperature;BME280_humidity;BME280_pressure;Samples;Min_cycle;Max_cycle;Signal;HPM_P1;HPM_P2
2023/02/10 00:01:12;;;;;;;34.80;20.10;;;2.60;99.90;;;;;;5070369;28;20526;-68
2023/02/10 00:03:37;;;;;;;28.53;17.83;;;2.60;99.90;;;;;;5069378;28;20536;-68
2023/02/10 00:06:03;;;;;;;30.10;18.40;;;2.60;99.90;;;;;;5068709;28;20562;-67
2023/02/10 00:08:30;;;;;;;33.30;19.60;;;2.60;99.90;;;;;;5071053;28;20247;-67
2023/02/10 00:11:00;;;;;;;27.73;18.20;;;2.60;99.90;;;;;;5067919;28;20455;-68
2023/02/10 00:13:26;;;;;;;32.90;19.57;;;2.70;99.90;;;;;;5050056;28;20474;-69
2023/02/10 00:15:52;;;;;;;31.03;19.47;;;2.70;99.90;;;;;;5069386;28;20448;-69
2023/02/10 00:18:18;;;;;;;30.60;19.23;;;2.70;99.90;;;;;;5063242;28;20456;-66
2023/02/10 00:20:44;;;;;;;35.30;19.67;;;2.70;99.90;;;;;;5069322;28;20516;-66
2023/02/10 00:23:09;;;;;;;34.37;20.50;;;2.70;99.90;;;;;;5062660;28;20194;-68
2023/02/10 00:25:35;;;;;;;32.53;21.43;;;2.70;99.90;;;;;;5051177;28;20354;-68
2023/02/10 00:28:02;;;;;;;31.30;18.20;;;2.70;99.90;;;;;;5065459;28;20179;-67
2023/02/10 00:30:27;;;;;;;31.07;19.63;;;2.80;99.90;;;;;;5064548;28;20435;-68
2023/02/10 00:32:53;;;;;;;34.33;19.37;;;2.80;99.90;;;;;;5063622;28;20457;-67
2023/02/10 00:35:18;;;;;;;35.67;18.80;;;2.80;99.90;;;;;;5072248;28;20194;-67
2023/02/10 00:37:44;;;;;;;34.60;20.10;;;2.80;99.90;;;;;;5066023;28;20207;-67
2023/02/10 00:40:09;;;;;;;29.03;18.63;;;2.70;99.90;;;;;;5066048;28;20182;-67
2023/02/10 00:42:35;;;;;;;32.87;19.53;;;2.70;99.90;;;;;;5065153;28;20191;-67
2023/02/10 00:45:01;;;;;;;29.43;17.57;;;2.60;99.90;;;;;;5068035;28;20214;-67
2023/02/10 00:47:26;;;;;;;32.97;17.93;;;2.60;99.90;;;;;;5065011;28;20235;-67
2023/02/10 00:49:52;;;;;;;30.13;18.23;;;2.70;99.90;;;;;;5067575;28;20185;-67
2023/02/10 00:52:18;;;;;;;28.63;17.73;;;2.60;99.90;;;;;;5069437;28;20285;-68
2023/02/10 00:54:43;;;;;;;31.50;18.10;;;2.60;99.90;;;;;;5067291;28;20721;-67
2023/02/10 00:57:09;;;;;;;33.83;19.27;;;2.50;99.90;;;;;;5067263;28;20221;-67
2023/02/10 00:59:35;;;;;;;28.70;17.13;;;2.50;99.90;;;;;;5053820;28;20247;-67
2023/02/10 01:02:00;;;;;;;29.10;16.50;;;2.50;99.90;;;;;;5069825;28;20174;-68
2023/02/10 01:04:26;;;;;;;31.20;17.37;;;2.50;99.90;;;;;;5072934;28;20219;-67
2023/02/10 01:06:52;;;;;;;33.97;18.93;;;2.40;99.90;;;;;;5072834;28;20247;-67
2023/02/10 01:09:17;;;;;;;28.30;18.60;;;2.50;99.90;;;;;;5071765;28;20183;-67
2023/02/10 01:11:43;;;;;;;34.93;19.10;;;2.50;99.90;;;;;;5073619;28;20235;-67
2023/02/10 01:14:09;;;;;;;33.10;19.50;;;2.50;99.90;;;;;;5074508;28;20190;-67
2023/02/10 01:16:35;;;;;;;31.13;18.23;;;2.40;99.90;;;;;;5071017;28;20448;-66
2023/02/10 01:19:01;;;;;;;26.53;17.43;;;2.60;99.90;;;;;;5077272;28;20815;-67
2023/02/10 01:21:27;;;;;;;27.30;17.43;;;2.60;99.90;;;;;;5078582;28;20179;-67
2023/02/10 01:23:53;;;;;;;32.40;17.70;;;2.50;99.90;;;;;;5075144;28;20432;-67
2023/02/10 01:26:18;;;;;;;29.60;16.83;;;2.50;99.90;;;;;;5073219;28;20824;-67
2023/02/10 01:28:44;;;;;;;30.17;17.97;;;2.40;99.90;;;;;;5074889;28;20239;-66
2023/02/10 01:31:13;;;;;;;39.27;18.00;;;2.20;99.90;;;;;;5076095;28;21398;-67
2023/02/10 01:33:39;;;;;;;27.77;18.43;;;2.00;99.90;;;;;;5077731;28;20206;-67
2023/02/10 01:36:10;;;;;;;25.97;17.43;;;2.00;99.90;;;;;;5075713;28;20490;-67
2023/02/10 01:38:36;;;;;;;29.27;18.40;;;1.80;99.90;;;;;;5078177;28;20430;-66
2023/02/10 01:41:03;;;;;;;28.97;17.93;;;1.90;99.90;;;;;;5070973;28;20989;-67
2023/02/10 01:43:28;;;;;;;28.23;18.40;;;1.80;99.90;;;;;;5073459;28;20270;-66
2023/02/10 01:45:54;;;;;;;28.43;17.50;;;1.80;99.90;;;;;;5055006;28;20867;-67
2023/02/10 01:48:19;;;;;;;29.97;19.10;;;1.90;99.90;;;;;;5073144;28;20273;-66
2023/02/10 01:50:54;;;;;;;26.03;17.10;;;1.90;99.90;;;;;;5075259;28;20242;-66
2023/02/10 01:53:22;;;;;;;28.10;17.37;;;1.90;99.90;;;;;;5065965;28;20221;-66
2023/02/10 01:55:52;;;;;;;29.10;17.80;;;1.90;99.90;;;;;;5071338;28;20460;-67
2023/02/10 01:58:21;;;;;;;27.90;17.40;;;1.80;99.90;;;;;;5055657;28;20428;-67
2023/02/10 02:00:46;;;;;;;33.53;20.20;;;1.80;99.90;;;;;;5076622;28;20442;-67
2023/02/10 02:03:13;;;;;;;30.40;18.23;;;1.80;99.90;;;;;;5070673;28;20454;-67
2023/02/10 02:05:41;;;;;;;34.60;20.60;;;1.90;99.90;;;;;;5075617;28;20203;-66
2023/02/10 02:08:11;;;;;;;40.07;21.50;;;1.80;99.90;;;;;;5069048;28;20552;-66
2023/02/10 02:10:54;;;;;;;33.50;18.77;;;1.80;99.90;;;;;;5056112;28;20524;-67
2023/02/10 02:13:33;;;;;;;30.87;20.10;;;1.80;99.90;;;;;;5073234;28;20462;-68
2023/02/10 02:16:14;;;;;;;34.23;20.83;;;1.70;99.90;;;;;;5069050;28;20465;-67
2023/02/10 02:18:59;;;;;;;25.37;18.70;;;1.80;99.90;;;;;;5074949;28;20466;-67
2023/02/10 02:21:45;;;;;;;34.33;21.43;;;1.90;99.90;;;;;;5071396;28;20450;-70
2023/02/10 02:24:20;;;;;;;30.77;18.50;;;1.80;99.90;;;;;;5074949;28;20428;-68
2023/02/10 02:26:54;;;;;;;32.53;20.93;;;1.80;99.90;;;;;;5072898;28;20491;-67
2023/02/10 02:32:51;;;;;;;31.20;18.60;;;1.80;99.90;;;;;;5069360;28;20498;-67
2023/02/10 02:35:24;;;;;;;29.47;20.20;;;1.80;99.90;;;;;;5072458;28;20519;-67
2023/02/10 02:37:52;;;;;;;35.60;20.40;;;1.80;99.90;;;;;;5073877;28;20547;-67
2023/02/10 02:40:18;;;;;;;35.30;20.47;;;1.80;99.90;;;;;;5072386;28;20425;-67
2023/02/10 02:42:43;;;;;;;31.47;19.30;;;1.80;99.90;;;;;;5074896;28;20450;-67
2023/02/10 02:45:16;;;;;;;32.73;20.53;;;1.80;99.90;;;;;;5071971;28;20188;-67
2023/02/10 02:48:03;;;;;;;36.13;18.30;;;1.80;99.90;;;;;;5071005;28;20193;-67
2023/02/10 02:50:40;;;;;;;37.13;18.80;;;1.80;99.90;;;;;;5072244;28;20511;-68
2023/02/10 02:53:22;;;;;;;30.47;19.87;;;1.80;99.90;;;;;;5069219;28;20991;-67
2023/02/10 02:56:09;;;;;;;30.73;19.33;;;1.70;99.90;;;;;;5069384;28;20836;-68
2023/02/10 02:58:40;;;;;;;36.17;21.20;;;1.70;99.90;;;;;;5074334;28;20469;-68
2023/02/10 03:01:13;;;;;;;37.23;20.60;;;1.80;99.90;;;;;;5066915;28;20493;-68
2023/02/10 03:03:39;;;;;;;34.50;21.37;;;1.80;99.90;;;;;;5074736;28;20653;-67
2023/02/10 03:06:04;;;;;;;32.35;21.00;;;1.90;99.90;;;;;;5033197;28;1044663;-67
2023/02/10 03:08:32;;;;;;;29.50;19.60;;;1.90;99.90;;;;;;5069443;28;20194;-67
2023/02/10 03:10:58;;;;;;;31.90;20.33;;;1.70;99.90;;;;;;5070808;28;20612;-67
2023/02/10 03:13:23;;;;;;;31.70;19.70;;;1.70;99.90;;;;;;5054449;28;20459;-67
2023/02/10 03:15:49;;;;;;;29.80;18.97;;;1.80;99.90;;;;;;5054199;28;20204;-67
2023/02/10 03:18:15;;;;;;;35.70;20.57;;;1.70;99.90;;;;;;5069731;28;20222;-67
2023/02/10 03:20:41;;;;;;;32.37;18.73;;;1.70;99.90;;;;;;5071877;28;20255;-67
2023/02/10 03:23:07;;;;;;;31.33;20.43;;;1.70;99.90;;;;;;5073107;28;20807;-67
2023/02/10 03:25:32;;;;;;;37.57;21.77;;;1.60;99.90;;;;;;5072478;28;20276;-67
2023/02/10 03:27:58;;;;;;;34.13;21.53;;;1.50;99.90;;;;;;5072102;28;20186;-67
2023/02/10 03:30:24;;;;;;;32.97;21.60;;;1.50;99.90;;;;;;5071298;28;20554;-67
2023/02/10 03:32:51;;;;;;;33.23;20.93;;;1.50;99.90;;;;;;5071389;28;20210;-67
2023/02/10 03:35:17;;;;;;;36.93;22.10;;;1.50;99.90;;;;;;5068597;28;20186;-67
2023/02/10 03:37:42;;;;;;;39.40;23.40;;;1.50;99.90;;;;;;5068893;28;20443;-66
2023/02/10 03:40:08;;;;;;;33.33;21.47;;;1.50;99.90;;;;;;5073322;28;20181;-66
2023/02/10 03:42:34;;;;;;;37.77;23.87;;;1.60;99.90;;;;;;5068122;28;20181;-67
2023/02/10 03:44:59;;;;;;;34.53;22.63;;;1.60;99.90;;;;;;5054445;28;20494;-67
2023/02/10 03:47:25;;;;;;;35.60;20.80;;;1.50;99.90;;;;;;5068123;28;20197;-67
2023/02/10 03:49:50;;;;;;;37.43;21.93;;;1.50;99.90;;;;;;5073210;28;20193;-66
2023/02/10 03:52:16;;;;;;;36.87;25.13;;;1.40;99.90;;;;;;5071150;28;20209;-67
2023/02/10 03:54:41;;;;;;;39.50;23.40;;;1.50;99.90;;;;;;5070561;28;20227;-67
2023/02/10 03:57:07;;;;;;;32.50;21.40;;;1.40;99.90;;;;;;5069509;28;20582;-67
2023/02/10 03:59:33;;;;;;;36.77;22.00;;;1.40;99.90;;;;;;5070475;28;20174;-67
2023/02/10 04:01:58;;;;;;;29.70;18.57;;;1.40;99.90;;;;;;5071395;28;20296;-67
2023/02/10 04:04:24;;;;;;;36.07;21.17;;;1.30;99.90;;;;;;5070912;28;20189;-67
2023/02/10 04:06:49;;;;;;;35.20;21.40;;;1.40;99.90;;;;;;5070177;28;20989;-67
2023/02/10 04:09:15;;;;;;;37.13;20.43;;;1.30;99.90;;;;;;5069423;28;20772;-67
2023/02/10 04:11:41;;;;;;;41.20;22.37;;;1.40;99.90;;;;;;5072345;28;20274;-67
2023/02/10 04:14:06;;;;;;;35.90;21.43;;;1.40;99.90;;;;;;5067976;28;20196;-67
2023/02/10 04:16:33;;;;;;;34.27;19.90;;;1.40;99.90;;;;;;5073734;28;20237;-66
2023/02/10 04:18:59;;;;;;;30.90;19.67;;;1.40;99.90;;;;;;5049662;28;20185;-67
2023/02/10 04:21:24;;;;;;;32.97;20.87;;;1.30;99.90;;;;;;5070980;28;21256;-67
2023/02/10 04:23:51;;;;;;;30.57;20.13;;;1.30;99.90;;;;;;5070070;28;20186;-67
2023/02/10 04:26:17;;;;;;;36.27;20.73;;;1.40;99.90;;;;;;5071536;28;20326;-67
2023/02/10 04:28:42;;;;;;;32.27;20.80;;;1.30;99.90;;;;;;5070607;28;20472;-67
2023/02/10 04:31:09;;;;;;;36.03;20.80;;;1.40;99.90;;;;;;5070266;28;20190;-67
2023/02/10 04:33:35;;;;;;;31.90;20.97;;;1.40;99.90;;;;;;5070849;28;20218;-67
2023/02/10 04:36:05;;;;;;;36.03;21.10;;;1.30;99.90;;;;;;5071361;28;20461;-68
2023/02/10 04:38:30;;;;;;;43.93;22.97;;;1.40;99.90;;;;;;5068064;28;20625;-68
2023/02/10 04:40:56;;;;;;;31.70;19.40;;;1.30;99.90;;;;;;5071087;28;20906;-68
2023/02/10 04:43:22;;;;;;;39.53;21.80;;;1.30;99.90;;;;;;5070525;28;20190;-68
2023/02/10 04:45:48;;;;;;;35.17;20.87;;;1.30;99.90;;;;;;5070361;28;21576;-68
2023/02/10 04:48:16;;;;;;;35.87;21.93;;;1.30;99.90;;;;;;5071751;28;20560;-68
2023/02/10 04:50:42;;;;;;;39.47;22.67;;;1.30;99.90;;;;;;5069240;28;20829;-68
2023/02/10 04:53:07;;;;;;;35.50;21.43;;;1.20;99.90;;;;;;5070162;28;20460;-68
2023/02/10 04:55:34;;;;;;;36.63;21.17;;;1.20;99.90;;;;;;5068420;28;20201;-68
2023/02/10 04:58:00;;;;;;;35.23;20.20;;;1.20;99.90;;;;;;5070710;28;20286;-68
2023/02/10 05:00:26;;;;;;;41.90;20.50;;;1.10;99.90;;;;;;5068482;28;20535;-68
2023/02/10 05:02:52;;;;;;;34.43;21.20;;;1.10;99.90;;;;;;5072972;28;21091;-67
2023/02/10 05:05:18;;;;;;;33.30;19.23;;;1.10;99.90;;;;;;5070471;28;20442;-68
2023/02/10 05:07:44;;;;;;;35.33;22.60;;;1.10;99.90;;;;;;5070801;28;20209;-67
2023/02/10 05:10:09;;;;;;;39.57;22.30;;;1.10;99.90;;;;;;5070310;28;20965;-67
2023/02/10 05:12:35;;;;;;;35.70;19.93;;;1.10;99.90;;;;;;5071022;28;20205;-67
2023/02/10 05:15:01;;;;;;;31.27;18.93;;;1.20;99.90;;;;;;5052744;28;20191;-67
2023/02/10 05:17:26;;;;;;;32.80;21.47;;;1.10;99.90;;;;;;5053172;28;20305;-67
2023/02/10 05:19:52;;;;;;;36.00;21.80;;;1.10;99.90;;;;;;5066326;28;20903;-67
2023/02/10 05:22:17;;;;;;;34.57;19.73;;;1.10;99.90;;;;;;5071253;28;20215;-67
2023/02/10 05:24:43;;;;;;;36.10;20.50;;;1.10;99.90;;;;;;5065278;28;20283;-66
2023/02/10 05:27:08;;;;;;;39.43;21.50;;;1.10;99.90;;;;;;5072413;28;20291;-67
2023/02/10 05:29:34;;;;;;;38.13;22.87;;;1.00;99.90;;;;;;5069233;28;20182;-66
2023/02/10 05:32:00;;;;;;;33.13;19.73;;;1.10;99.90;;;;;;5069917;28;20204;-67
2023/02/10 05:34:26;;;;;;;34.60;21.30;;;1.20;99.90;;;;;;5047152;28;20252;-67
2023/02/10 05:36:52;;;;;;;41.53;22.20;;;1.10;99.90;;;;;;5071323;28;20501;-67
2023/02/10 05:39:24;;;;;;;40.17;23.70;;;1.10;99.90;;;;;;5048933;28;20269;-67
2023/02/10 05:41:55;;;;;;;43.07;23.07;;;0.80;99.90;;;;;;5070847;28;20536;-67
2023/02/10 05:44:21;;;;;;;34.27;21.80;;;0.80;99.90;;;;;;5068104;28;20447;-67
2023/02/10 05:46:47;;;;;;;38.80;22.73;;;0.80;99.90;;;;;;5072358;28;20483;-67
2023/02/10 05:49:12;;;;;;;37.47;23.77;;;0.80;99.90;;;;;;5047120;28;20460;-67
2023/02/10 05:51:38;;;;;;;36.40;22.40;;;0.80;99.90;;;;;;5071655;28;20186;-67
2023/02/10 05:54:04;;;;;;;41.27;25.13;;;0.80;99.90;;;;;;5070699;28;20308;-67
2023/02/10 05:56:29;;;;;;;42.77;24.07;;;0.80;99.90;;;;;;5078868;28;20789;-67
2023/02/10 05:58:55;;;;;;;40.03;24.27;;;0.90;99.90;;;;;;5074580;28;20297;-67
2023/02/10 06:01:21;;;;;;;41.53;24.80;;;0.80;99.90;;;;;;5071684;28;20697;-66
2023/02/10 06:03:46;;;;;;;37.37;24.13;;;0.90;99.90;;;;;;5058092;28;20915;-66
2023/02/10 06:06:12;;;;;;;41.07;24.17;;;0.80;99.90;;;;;;5073435;28;20225;-67
2023/02/10 06:08:37;;;;;;;41.43;24.20;;;0.90;99.90;;;;;;5069377;28;20259;-67
2023/02/10 06:11:03;;;;;;;40.90;24.77;;;0.90;99.90;;;;;;5056153;28;20247;-67
2023/02/10 06:13:30;;;;;;;41.90;23.77;;;0.80;99.90;;;;;;5058486;28;20208;-67
2023/02/10 06:15:55;;;;;;;44.07;24.57;;;0.70;99.90;;;;;;5058028;28;20198;-67
2023/02/10 06:18:21;;;;;;;43.33;26.00;;;0.80;99.90;;;;;;5072381;28;20883;-67
2023/02/10 06:20:47;;;;;;;39.33;25.90;;;0.70;99.90;;;;;;5072341;28;20636;-67
2023/02/10 06:23:13;;;;;;;44.17;25.87;;;0.80;99.90;;;;;;5054004;28;20274;-66
2023/02/10 06:25:39;;;;;;;39.53;25.70;;;0.70;99.90;;;;;;5074107;28;20444;-67
2023/02/10 06:28:04;;;;;;;39.77;23.63;;;0.80;99.90;;;;;;5055912;28;20461;-67
2023/02/10 06:30:30;;;;;;;41.70;23.87;;;0.90;99.90;;;;;;5074288;28;20248;-67
2023/02/10 06:32:56;;;;;;;41.33;24.80;;;0.80;99.90;;;;;;5074846;28;20201;-67
2023/02/10 06:35:21;;;;;;;34.80;22.97;;;0.80;99.90;;;;;;5052029;28;20435;-66
2023/02/10 06:37:47;;;;;;;40.07;23.23;;;0.80;99.90;;;;;;5074435;28;20242;-67
2023/02/10 06:40:13;;;;;;;37.57;22.30;;;0.80;99.90;;;;;;5068680;28;20281;-67
2023/02/10 06:42:39;;;;;;;34.33;22.30;;;0.90;99.90;;;;;;5053705;28;20454;-68
2023/02/10 06:45:05;;;;;;;46.23;21.97;;;0.80;99.90;;;;;;5073681;28;20456;-67
2023/02/10 06:47:31;;;;;;;39.90;22.87;;;0.80;99.90;;;;;;5073797;28;20205;-67
2023/02/10 06:49:56;;;;;;;39.70;23.90;;;0.80;99.90;;;;;;5073645;28;20435;-67
2023/02/10 06:52:24;;;;;;;35.10;20.57;;;0.90;99.90;;;;;;5066311;28;20216;-66
2023/02/10 06:54:50;;;;;;;42.43;21.57;;;0.90;99.90;;;;;;5070944;28;20654;-67
2023/02/10 06:57:15;;;;;;;35.80;22.20;;;0.90;99.90;;;;;;5064620;28;20454;-67
2023/02/10 06:59:41;;;;;;;40.33;22.97;;;0.90;99.90;;;;;;5052741;28;20443;-67
2023/02/10 07:02:09;;;;;;;34.80;21.30;;;0.90;99.90;;;;;;5042463;28;20197;-64
2023/02/10 07:04:35;;;;;;;45.47;21.90;;;0.90;99.90;;;;;;5052098;28;20236;-67
2023/02/10 07:07:00;;;;;;;36.00;21.93;;;0.90;99.90;;;;;;5065781;28;20900;-67
2023/02/10 07:09:26;;;;;;;40.87;25.17;;;0.90;99.90;;;;;;5068344;28;20192;-68
2023/02/10 07:11:52;;;;;;;36.80;21.93;;;0.90;99.90;;;;;;5050786;28;20244;-68
2023/02/10 07:14:17;;;;;;;35.60;23.50;;;0.80;99.90;;;;;;5054328;28;20447;-68
2023/02/10 07:16:43;;;;;;;38.47;23.70;;;0.80;99.90;;;;;;5065910;28;20215;-68
2023/02/10 07:19:09;;;;;;;46.20;25.40;;;0.80;99.90;;;;;;5067782;28;20209;-68
2023/02/10 07:21:34;;;;;;;39.30;23.57;;;0.80;99.90;;;;;;5069542;28;20196;-67
2023/02/10 07:24:01;;;;;;;43.03;24.27;;;0.80;99.90;;;;;;5045556;28;20296;-69
2023/02/10 07:26:27;;;;;;;37.90;24.10;;;0.80;99.90;;;;;;5069083;28;20780;-68
2023/02/10 07:28:53;;;;;;;38.93;22.60;;;0.90;99.90;;;;;;5067575;28;20587;-68
2023/02/10 07:31:18;;;;;;;38.97;23.10;;;1.00;99.90;;;;;;5068719;28;21516;-67
2023/02/10 07:33:44;;;;;;;39.20;23.03;;;1.00;99.90;;;;;;5070028;28;21842;-68
2023/02/10 07:36:10;;;;;;;38.40;23.60;;;1.10;99.90;;;;;;5065153;28;21057;-67
2023/02/10 07:38:37;;;;;;;40.70;25.53;;;1.00;99.90;;;;;;5070222;28;20327;-68
2023/02/10 07:41:03;;;;;;;43.70;24.60;;;0.90;99.90;;;;;;5069434;28;20430;-67
2023/02/10 07:43:29;;;;;;;42.40;25.60;;;1.00;99.90;;;;;;5064264;28;20440;-67
2023/02/10 07:45:55;;;;;;;37.60;22.40;;;1.20;99.90;;;;;;5068569;28;20854;-66
2023/02/10 07:48:20;;;;;;;40.23;21.20;;;1.30;99.90;;;;;;5052217;28;20742;-66
2023/02/10 07:50:47;;;;;;;39.23;24.40;;;1.30;99.90;;;;;;5052115;28;20189;-68
2023/02/10 07:53:12;;;;;;;40.40;23.93;;;1.30;99.90;;;;;;5070965;28;20659;-66
2023/02/10 07:55:39;;;;;;;42.47;25.80;;;1.30;99.90;;;;;;5076575;28;20440;-67
2023/02/10 07:58:05;;;;;;;45.37;25.83;;;1.20;99.90;;;;;;5074242;28;20827;-66
2023/02/10 08:00:31;;;;;;;39.80;23.10;;;1.30;99.90;;;;;;5053534;28;20437;-66
2023/02/10 08:02:56;;;;;;;44.43;25.17;;;1.40;99.90;;;;;;5072430;28;20447;-66
2023/02/10 08:05:22;;;;;;;40.97;26.47;;;1.30;99.90;;;;;;5070627;28;20225;-66
2023/02/10 08:07:48;;;;;;;39.37;25.50;;;1.40;99.90;;;;;;5068040;28;20305;-67
2023/02/10 08:10:14;;;;;;;35.53;21.80;;;1.30;99.90;;;;;;5066030;28;20196;-66
2023/02/10 08:12:40;;;;;;;42.13;25.73;;;1.30;99.90;;;;;;5072442;28;20820;-67
2023/02/10 08:15:07;;;;;;;39.83;23.73;;;1.30;99.90;;;;;;5067719;28;20443;-67
2023/02/10 08:17:33;;;;;;;40.73;24.70;;;1.30;99.90;;;;;;5072254;28;20540;-66
2023/02/10 08:19:58;;;;;;;43.80;25.80;;;1.30;99.90;;;;;;5069092;28;20439;-66
2023/02/10 08:22:24;;;;;;;35.23;22.63;;;1.30;99.90;;;;;;5068475;28;20464;-67
2023/02/10 08:24:50;;;;;;;44.37;24.47;;;1.30;99.90;;;;;;5067939;28;20175;-68
2023/02/10 08:27:16;;;;;;;38.27;23.47;;;1.40;99.90;;;;;;5065518;28;20795;-68
2023/02/10 08:29:41;;;;;;;34.77;23.03;;;1.40;99.90;;;;;;5065596;28;20517;-69
2023/02/10 08:32:07;;;;;;;36.10;25.50;;;1.40;99.90;;;;;;5068916;28;20206;-69
2023/02/10 08:34:33;;;;;;;39.23;22.50;;;1.50;99.90;;;;;;5059269;28;20171;-70
2023/02/10 08:36:59;;;;;;;36.27;23.30;;;1.50;99.90;;;;;;5066373;28;20598;-69
2023/02/10 08:39:26;;;;;;;40.73;24.13;;;1.60;99.90;;;;;;5069537;28;20532;-70
2023/02/10 08:41:52;;;;;;;35.60;22.70;;;1.70;99.90;;;;;;5067374;28;20924;-67
2023/02/10 08:44:17;;;;;;;45.07;22.67;;;1.80;99.90;;;;;;5063570;28;20453;-69
2023/02/10 08:46:43;;;;;;;38.37;25.13;;;1.80;99.90;;;;;;5070646;28;20198;-69
2023/02/10 08:49:09;;;;;;;41.67;24.23;;;1.80;99.90;;;;;;5073184;28;20175;-70
2023/02/10 08:51:34;;;;;;;43.07;21.57;;;1.80;99.90;;;;;;5067387;28;20188;-69
2023/02/10 08:54:01;;;;;;;33.17;20.87;;;1.80;99.90;;;;;;5067016;28;20850;-68
2023/02/10 08:56:26;;;;;;;38.03;23.50;;;1.90;99.90;;;;;;5063514;28;20578;-67
2023/02/10 08:58:52;;;;;;;39.77;24.37;;;1.90;99.90;;;;;;5069476;28;20431;-67
2023/02/10 09:01:22;;;;;;;37.17;23.50;;;1.90;99.90;;;;;;5068776;28;20574;-67
2023/02/10 09:03:48;;;;;;;40.80;22.87;;;2.00;99.90;;;;;;5065499;28;20220;-68
2023/02/10 09:06:19;;;;;;;40.10;23.87;;;2.10;99.90;;;;;;5060292;28;20467;-69
2023/02/10 09:08:47;;;;;;;35.37;23.40;;;2.20;99.90;;;;;;5076486;28;20435;-68
2023/02/10 09:11:14;;;;;;;36.50;23.87;;;2.20;99.90;;;;;;5070712;28;20439;-67
2023/02/10 09:13:39;;;;;;;40.27;24.00;;;2.30;99.90;;;;;;5071818;28;20550;-68
2023/02/10 09:16:05;;;;;;;39.33;23.63;;;2.30;99.90;;;;;;5063463;28;20898;-68
2023/02/10 09:18:31;;;;;;;38.13;24.30;;;2.40;99.90;;;;;;5069669;28;20179;-69
2023/02/10 09:20:58;;;;;;;32.67;21.00;;;2.40;99.90;;;;;;5072267;28;20443;-68
2023/02/10 09:23:23;;;;;;;36.27;22.23;;;2.60;99.90;;;;;;5072100;28;20436;-67
2023/02/10 09:25:59;;;;;;;39.17;24.63;;;2.60;99.90;;;;;;5069328;28;20498;-69
2023/02/10 09:28:26;;;;;;;37.47;23.37;;;2.60;99.90;;;;;;5074022;28;20235;-68
2023/02/10 09:30:51;;;;;;;40.27;22.10;;;2.70;99.90;;;;;;5074001;28;20961;-68
2023/02/10 09:33:17;;;;;;;37.50;21.80;;;2.80;99.90;;;;;;5076697;28;20469;-68
2023/02/10 09:35:43;;;;;;;38.20;24.43;;;2.90;99.90;;;;;;5074310;28;20186;-69
2023/02/10 09:38:10;;;;;;;44.13;22.03;;;2.90;99.90;;;;;;5075295;28;20206;-67
2023/02/10 09:40:58;;;;;;;41.07;23.27;;;3.00;99.90;;;;;;5072974;28;20476;-69
2023/02/10 09:43:53;;;;;;;39.13;25.20;;;3.10;99.90;;;;;;5055127;28;20423;-68
2023/02/10 09:46:40;;;;;;;37.40;23.80;;;3.10;99.90;;;;;;5071802;28;20448;-70
2023/02/10 09:49:34;;;;;;;45.67;25.03;;;3.10;99.90;;;;;;5076535;28;20447;-69
2023/02/10 09:52:12;;;;;;;39.20;24.13;;;3.20;99.90;;;;;;5059761;28;20417;-70
2023/02/10 09:54:39;;;;;;;41.27;25.70;;;3.20;99.90;;;;;;5068727;28;21112;-68
2023/02/10 09:57:41;;;;;;;45.67;27.40;;;3.10;99.90;;;;;;5073766;28;20433;-73
2023/02/10 10:00:24;;;;;;;46.60;27.80;;;3.20;99.90;;;;;;5071699;28;20419;-73
2023/02/10 10:02:53;;;;;;;39.53;26.13;;;3.30;99.90;;;;;;5077178;28;20635;-68
2023/02/10 10:05:46;;;;;;;47.27;27.13;;;3.40;99.90;;;;;;5070111;28;20456;-69
2023/02/10 10:08:24;;;;;;;42.77;29.67;;;3.30;99.90;;;;;;5063503;28;20466;-71
2023/02/10 10:10:51;;;;;;;45.53;27.70;;;3.40;99.90;;;;;;5078698;28;20428;-71
2023/02/10 10:13:35;;;;;;;43.30;27.50;;;3.50;99.90;;;;;;5067816;28;20464;-69
2023/02/10 10:16:24;;;;;;;48.00;29.33;;;3.60;99.90;;;;;;5056528;28;20538;-69
2023/02/10 10:19:20;;;;;;;43.30;27.47;;;3.60;99.90;;;;;;5070737;28;20838;-68
2023/02/10 10:22:01;;;;;;;46.83;29.23;;;3.80;99.90;;;;;;5070584;28;20451;-68
2023/02/10 10:24:41;;;;;;;47.47;29.83;;;3.80;99.90;;;;;;5071154;28;20421;-68
2023/02/10 10:27:16;;;;;;;46.60;29.40;;;3.90;99.90;;;;;;5077723;28;20445;-68
2023/02/10 10:29:44;;;;;;;49.23;28.00;;;4.00;99.90;;;;;;5061531;28;20423;-69
2023/02/10 10:32:13;;;;;;;45.37;29.67;;;4.10;99.90;;;;;;5078170;28;21336;-69
2023/02/10 10:34:45;;;;;;;50.07;30.70;;;4.20;99.90;;;;;;5072623;28;20504;-69
2023/02/10 10:37:18;;;;;;;52.47;32.40;;;4.30;99.90;;;;;;5074501;28;21012;-69
2023/02/10 10:39:47;;;;;;;53.17;30.10;;;4.30;99.90;;;;;;5075114;28;20440;-68
2023/02/10 10:42:36;;;;;;;56.93;34.53;;;4.30;99.90;;;;;;5075268;28;20886;-68
2023/02/10 10:45:19;;;;;;;52.70;34.00;;;4.30;99.90;;;;;;5056747;28;20811;-69
2023/02/10 10:48:09;;;;;;;55.53;31.63;;;4.20;99.90;;;;;;5071307;28;20456;-68
2023/02/10 10:50:35;;;;;;;55.87;33.50;;;4.30;99.90;;;;;;5068472;28;20424;-68
2023/02/10 10:53:11;;;;;;;53.70;32.73;;;4.30;99.90;;;;;;5073319;28;20500;-68
2023/02/10 10:55:43;;;;;;;52.97;31.40;;;4.40;99.90;;;;;;5071336;28;20448;-68
2023/02/10 10:58:26;;;;;;;54.80;31.37;;;4.50;99.90;;;;;;5076517;28;20548;-68
2023/02/10 11:00:55;;;;;;;58.63;32.57;;;4.50;99.90;;;;;;5076961;28;20952;-68
2023/02/10 11:03:21;;;;;;;56.93;34.03;;;4.40;99.90;;;;;;5074795;28;20460;-69
2023/02/10 11:06:08;;;;;;;53.43;31.87;;;4.40;99.90;;;;;;5075859;28;20452;-68
2023/02/10 11:08:53;;;;;;;47.03;30.30;;;4.60;99.90;;;;;;5074700;28;20427;-68
2023/02/10 11:11:18;;;;;;;50.60;30.40;;;4.60;99.90;;;;;;5070703;28;22220;-69
2023/02/10 11:13:55;;;;;;;41.03;27.73;;;4.70;99.90;;;;;;5070942;28;20472;-68
2023/02/10 11:16:21;;;;;;;50.47;30.37;;;4.70;99.90;;;;;;5049213;28;20599;-68
2023/02/10 11:18:57;;;;;;;51.77;31.67;;;4.80;99.90;;;;;;5071931;28;20424;-68
2023/02/10 11:21:34;;;;;;;53.23;30.43;;;4.70;99.90;;;;;;5069946;28;20483;-68
2023/02/10 11:23:59;;;;;;;46.87;27.60;;;4.90;99.90;;;;;;5071952;28;20458;-68
2023/02/10 11:26:26;;;;;;;49.13;29.43;;;5.00;99.90;;;;;;5071371;28;20974;-69
2023/02/10 11:28:53;;;;;;;49.10;31.00;;;5.00;99.90;;;;;;5070922;28;20617;-68
2023/02/10 11:31:22;;;;;;;48.23;30.33;;;5.00;99.90;;;;;;5073759;28;20437;-67
2023/02/10 11:34:21;;;;;;;49.60;28.80;;;5.10;99.90;;;;;;5072609;28;20459;-70
2023/02/10 11:36:50;;;;;;;48.10;28.27;;;5.20;99.90;;;;;;5059411;28;20456;-69
2023/02/10 11:39:36;;;;;;;43.90;27.73;;;5.30;99.90;;;;;;5075462;28;20412;-68
2023/02/10 11:42:18;;;;;;;47.60;28.60;;;5.40;99.90;;;;;;5072076;28;20507;-68
2023/02/10 11:44:57;;;;;;;49.47;28.33;;;5.50;99.90;;;;;;5074880;28;20822;-69
2023/02/10 11:47:25;;;;;;;45.30;29.37;;;5.50;99.90;;;;;;5072045;28;20992;-68
2023/02/10 11:49:51;;;;;;;45.20;28.90;;;5.60;99.90;;;;;;5072346;28;20421;-69
2023/02/10 11:52:21;;;;;;;40.63;27.10;;;5.80;99.90;;;;;;5070629;28;20456;-68
2023/02/10 11:54:47;;;;;;;46.30;28.00;;;5.90;99.90;;;;;;5072525;28;20202;-68
2023/02/10 12:00:40;;;;;;;42.47;26.07;;;6.00;99.90;;;;;;5074403;28;20432;-68
2023/02/10 12:03:55;;;;;;;42.47;26.43;;;6.20;99.90;;;;;;5075377;28;20425;-68
2023/02/10 12:06:33;;;;;;;43.83;26.03;;;6.30;99.90;;;;;;5068163;28;20464;-68
2023/02/10 12:09:04;;;;;;;40.03;26.23;;;6.40;99.90;;;;;;5073369;28;20464;-68
2023/02/10 12:11:54;;;;;;;44.13;25.03;;;6.50;99.90;;;;;;5051125;28;20961;-68
2023/02/10 12:14:51;;;;;;;37.83;26.47;;;6.90;99.90;;;;;;5071854;28;20464;-68
2023/02/10 12:17:24;;;;;;;37.50;23.43;;;7.70;99.90;;;;;;5074615;28;20459;-68
2023/02/10 12:20:17;;;;;;;36.50;24.27;;;8.20;99.90;;;;;;5070776;28;20420;-68
2023/02/10 12:23:01;;;;;;;40.47;24.17;;;8.30;99.90;;;;;;5070580;28;20437;-68
2023/02/10 12:25:43;;;;;;;40.43;23.70;;;8.60;99.90;;;;;;5074308;28;20894;-68
2023/02/10 12:28:12;;;;;;;31.23;21.67;;;9.10;99.90;;;;;;5073266;28;20653;-68
2023/02/10 12:30:59;;;;;;;37.90;23.87;;;9.40;99.90;;;;;;5074781;28;20543;-66
2023/02/10 12:33:34;;;;;;;38.40;23.83;;;9.30;99.90;;;;;;5065832;28;20556;-67
2023/02/10 12:36:28;;;;;;;40.07;24.60;;;9.40;99.90;;;;;;5073894;28;20506;-68
2023/02/10 12:39:02;;;;;;;35.93;24.30;;;9.40;99.90;;;;;;5069911;28;20429;-68
2023/02/10 12:41:56;;;;;;;41.10;23.60;;;9.50;99.90;;;;;;5067151;28;20950;-67
2023/02/10 12:44:40;;;;;;;32.53;22.43;;;9.60;99.90;;;;;;5071641;28;20460;-67
2023/02/10 12:47:39;;;;;;;36.10;22.50;;;9.70;99.10;;;;;;5069304;28;20492;-68
2023/02/10 12:50:16;;;;;;;35.00;23.87;;;9.90;97.90;;;;;;5071211;28;20428;-67
2023/02/10 12:52:49;;;;;;;36.10;22.23;;;9.60;98.10;;;;;;5053878;28;20456;-68
2023/02/10 12:55:23;;;;;;;34.60;22.73;;;9.90;97.20;;;;;;5072426;28;20436;-69